Time;durP1;ratioP1;P1;durP2;ratioP2;P2;SDS_P1;SDS_P2;PMS_P1;PMS_P2;Temp;Humidity;BMP_temperature;BMP_pressure;BME280_temperature;BME280_humidity;BME280_pressure;Samples;Min_cycle;Max_cycle;Signal;HPM_P1;HPM_P2
2024/01/30 00:00:05;;;;;;;173.35;76.88;;;-3.30;99.90;;;;;;5096253;28;20023;-83
2024/01/30 00:02:32;;;;;;;142.48;65.45;;;-3.30;99.90;;;;;;5044207;28;20029;-74
2024/01/30 00:04:57;;;;;;;140.20;63.70;;;-3.40;99.90;;;;;;5109644;28;20418;-74
2024/01/30 00:07:23;;;;;;;128.30;62.97;;;-3.40;99.90;;;;;;5089988;28;20030;-74
2024/01/30 00:09:49;;;;;;;139.13;63.35;;;-3.40;99.90;;;;;;5109849;28;20080;-82
2024/01/30 00:12:15;;;;;;;127.80;57.95;;;-3.40;99.90;;;;;;5091879;27;20061;-83
2024/01/30 00:14:43;;;;;;;117.30;53.72;;;-3.40;99.90;;;;;;5101540;28;20400;-84
2024/01/30 00:17:09;;;;;;;113.65;52.70;;;-3.40;99.90;;;;;;5065650;28;20029;-74
2024/01/30 00:19:35;;;;;;;106.68;48.90;;;-3.40;99.90;;;;;;5019620;28;20035;-82
2024/01/30 00:22:00;;;;;;;111.90;53.10;;;-3.40;99.90;;;;;;5074507;28;20054;-74
2024/01/30 00:24:26;;;;;;;112.22;50.85;;;-3.40;99.90;;;;;;5076568;28;20027;-74
2024/01/30 00:26:52;;;;;;;94.57;45.47;;;-3.40;99.90;;;;;;5088810;28;20057;-74
2024/01/30 00:29:19;;;;;;;102.30;45.72;;;-3.40;99.90;;;;;;5110402;28;20426;-75
2024/01/30 00:31:46;;;;;;;96.30;46.45;;;-3.40;99.90;;;;;;5088438;28;20025;-82
2024/01/30 00:34:11;;;;;;;99.00;47.53;;;-3.40;99.90;;;;;;5055108;28;20022;-81
2024/01/30 00:36:37;;;;;;;109.88;50.50;;;-3.40;99.90;;;;;;5114810;28;20017;-74
2024/01/30 00:39:06;;;;;;;112.80;50.67;;;-3.40;99.90;;;;;;5035639;27;20032;-74
2024/01/30 00:41:32;;;;;;;102.63;48.65;;;-3.40;99.90;;;;;;5029996;28;20024;-75
2024/01/30 00:43:57;;;;;;;100.88;47.60;;;-3.40;99.90;;;;;;5029774;28;20102;-81
2024/01/30 00:46:23;;;;;;;90.15;46.03;;;-3.40;99.90;;;;;;5020979;28;20053;-74
2024/01/30 00:48:49;;;;;;;89.95;43.95;;;-3.50;99.90;;;;;;5088156;27;20023;-83
2024/01/30 00:51:14;;;;;;;92.43;43.15;;;-3.50;99.90;;;;;;5133341;27;20019;-83
2024/01/30 00:53:41;;;;;;;99.53;44.33;;;-3.50;99.90;;;;;;5135195;27;20446;-82
2024/01/30 00:56:07;;;;;;;100.18;46.92;;;-3.50;99.90;;;;;;5132782;27;20032;-74
2024/01/30 00:58:33;;;;;;;84.22;44.05;;;-3.50;99.90;;;;;;5135575;27;20057;-73
2024/01/30 01:00:59;;;;;;;94.95;43.53;;;-3.50;99.90;;;;;;5129927;27;20023;-81
2024/01/30 01:03:25;;;;;;;95.35;44.22;;;-3.50;99.90;;;;;;5135450;27;20027;-73
2024/01/30 01:05:50;;;;;;;103.97;43.25;;;-3.60;99.90;;;;;;5132496;27;20122;-82
2024/01/30 01:08:16;;;;;;;97.13;43.75;;;-3.60;99.90;;;;;;5110740;27;20033;-73
2024/01/30 01:10:41;;;;;;;88.60;40.28;;;-3.50;99.90;;;;;;5033064;27;20025;-74
2024/01/30 01:13:07;;;;;;;85.63;42.95;;;-3.50;99.90;;;;;;5030631;28;20053;-74
2024/01/30 01:15:33;;;;;;;88.05;41.70;;;-3.50;99.90;;;;;;5032997;28;20018;-82
2024/01/30 01:17:58;;;;;;;84.05;40.03;;;-3.60;99.90;;;;;;5030720;28;20022;-82
2024/01/30 01:20:24;;;;;;;90.65;40.05;;;-3.60;99.90;;;;;;5031761;27;20057;-82
2024/01/30 01:22:50;;;;;;;90.38;42.53;;;-3.60;99.90;;;;;;5087921;27;20114;-82
2024/01/30 01:25:16;;;;;;;85.93;40.67;;;-3.70;99.90;;;;;;5134935;27;20369;-75
2024/01/30 01:27:42;;;;;;;84.68;40.05;;;-3.70;99.90;;;;;;5134492;27;20062;-74
2024/01/30 01:30:14;;;;;;;91.35;42.88;;;-3.70;99.90;;;;;;5131130;27;20480;-83
2024/01/30 01:32:44;;;;;;;88.88;41.42;;;-3.70;99.90;;;;;;5073336;27;20106;-82
2024/01/30 01:35:10;;;;;;;85.18;41.28;;;-3.70;99.90;;;;;;5030412;28;20024;-82
2024/01/30 01:37:36;;;;;;;82.15;37.70;;;-3.60;99.90;;;;;;5096786;27;20388;-74
2024/01/30 01:40:02;;;;;;;93.05;44.65;;;-3.60;99.90;;;;;;5044018;27;20026;-73
2024/01/30 01:42:28;;;;;;;96.78;42.95;;;-3.60;99.90;;;;;;5030478;28;20021;-76
2024/01/30 01:44:54;;;;;;;95.15;42.03;;;-3.60;99.90;;;;;;5128303;27;20042;-76
2024/01/30 01:47:20;;;;;;;91.32;41.53;;;-3.60;99.90;;;;;;5117139;27;20125;-84
2024/01/30 01:49:46;;;;;;;89.50;39.63;;;-3.60;99.90;;;;;;5031577;28;20497;-74
2024/01/30 01:52:12;;;;;;;97.20;42.42;;;-3.60;99.90;;;;;;5032047;28;20022;-74
2024/01/30 01:54:38;;;;;;;96.68;41.58;;;-3.70;99.90;;;;;;5031251;28;20045;-74
2024/01/30 01:57:04;;;;;;;88.00;41.55;;;-3.70;99.90;;;;;;5029927;28;20163;-73
2024/01/30 01:59:30;;;;;;;104.43;48.17;;;-3.70;99.90;;;;;;5032104;28;20427;-74
2024/01/30 02:01:56;;;;;;;132.70;55.95;;;-3.70;99.90;;;;;;5031623;27;20029;-82
2024/01/30 02:04:21;;;;;;;153.10;64.90;;;-3.70;99.90;;;;;;5032395;28;20501;-81
2024/01/30 02:06:47;;;;;;;141.90;57.17;;;-3.80;99.90;;;;;;5030674;28;20038;-73
2024/01/30 02:09:13;;;;;;;152.10;61.05;;;-3.90;99.90;;;;;;5031589;28;20017;-81
2024/01/30 02:11:38;;;;;;;150.98;65.53;;;-3.90;99.90;;;;;;5030547;27;20028;-74
2024/01/30 02:14:05;;;;;;;156.57;65.32;;;-3.90;99.90;;;;;;5125655;27;20031;-81
2024/01/30 02:16:31;;;;;;;153.10;68.32;;;-3.80;99.90;;;;;;5134270;27;20372;-82
2024/01/30 02:18:57;;;;;;;160.73;73.53;;;-3.90;99.90;;;;;;5132976;27;20022;-76
2024/01/30 02:21:23;;;;;;;188.68;84.28;;;-3.90;99.90;;;;;;5134173;27;20019;-73
2024/01/30 02:23:49;;;;;;;186.07;82.25;;;-3.90;99.90;;;;;;5129474;27;20020;-81
2024/01/30 02:26:15;;;;;;;183.15;80.80;;;-3.90;99.90;;;;;;5069974;27;20037;-74
2024/01/30 02:28:40;;;;;;;176.20;77.70;;;-4.00;99.90;;;;;;5121971;27;20027;-74
2024/01/30 02:31:06;;;;;;;176.57;77.97;;;-4.00;99.90;;;;;;5130022;27;20106;-83
2024/01/30 02:33:32;;;;;;;165.52;75.57;;;-4.00;99.90;;;;;;5124750;27;20020;-74
2024/01/30 02:35:58;;;;;;;163.02;69.85;;;-4.00;99.90;;;;;;5115425;27;20055;-73
2024/01/30 02:38:24;;;;;;;145.82;63.85;;;-4.00;99.90;;;;;;5121392;27;20015;-83
2024/01/30 02:40:50;;;;;;;141.75;59.75;;;-4.00;99.90;;;;;;5070913;27;20036;-74
2024/01/30 02:43:16;;;;;;;118.28;54.67;;;-4.00;99.90;;;;;;5028979;28;20112;-83
2024/01/30 02:45:42;;;;;;;98.90;47.30;;;-4.00;99.90;;;;;;5091936;27;20023;-83
2024/01/30 02:48:07;;;;;;;102.03;45.83;;;-4.00;99.90;;;;;;5133098;27;20103;-83
2024/01/30 02:50:33;;;;;;;117.30;49.20;;;-4.00;99.90;;;;;;5133424;27;20106;-74
2024/01/30 02:52:59;;;;;;;108.82;46.70;;;-4.00;99.90;;;;;;5131517;27;20011;-82
2024/01/30 02:55:25;;;;;;;102.47;50.05;;;-4.00;99.90;;;;;;5133723;27;20023;-73
2024/01/30 02:57:50;;;;;;;103.45;49.15;;;-4.00;99.90;;;;;;5129823;27;20046;-74
2024/01/30 03:00:16;;;;;;;99.95;47.10;;;-4.00;99.90;;;;;;5090538;27;20030;-82
2024/01/30 03:02:42;;;;;;;108.13;49.55;;;-4.00;99.90;;;;;;5047016;27;20030;-81
2024/01/30 03:05:08;;;;;;;118.30;52.13;;;-4.00;99.90;;;;;;5050831;27;20053;-74
2024/01/30 03:07:34;;;;;;;102.43;45.35;;;-4.10;99.90;;;;;;5045603;27;20116;-74
2024/01/30 03:10:00;;;;;;;110.75;47.22;;;-4.10;99.90;;;;;;5047766;27;20017;-75
2024/01/30 03:12:25;;;;;;;110.43;50.88;;;-4.10;99.90;;;;;;5040884;27;20414;-83
2024/01/30 03:14:51;;;;;;;110.05;51.28;;;-4.10;99.90;;;;;;5056635;27;20053;-73
2024/01/30 03:17:17;;;;;;;119.07;52.28;;;-4.10;99.90;;;;;;5030969;28;20104;-81
2024/01/30 03:19:43;;;;;;;115.45;53.13;;;-4.10;99.90;;;;;;5033791;28;20017;-82
2024/01/30 03:22:09;;;;;;;110.45;49.80;;;-4.10;99.90;;;;;;5029604;28;20017;-82
2024/01/30 03:24:34;;;;;;;108.28;49.28;;;-4.20;99.90;;;;;;5030309;28;20018;-74
2024/01/30 03:27:00;;;;;;;105.22;49.28;;;-4.20;99.90;;;;;;5035603;27;20230;-83
2024/01/30 03:29:26;;;;;;;97.38;44.88;;;-4.20;99.90;;;;;;5059786;27;20112;-82
2024/01/30 03:31:51;;;;;;;105.78;46.25;;;-4.20;99.90;;;;;;5063643;27;20082;-83
2024/01/30 03:34:17;;;;;;;98.60;45.15;;;-4.20;99.90;;;;;;5063607;27;20029;-83
2024/01/30 03:36:43;;;;;;;88.80;44.05;;;-4.20;99.90;;;;;;5065535;27;20078;-82
2024/01/30 03:39:08;;;;;;;99.07;45.88;;;-4.20;99.90;;;;;;5061491;27;20049;-73
2024/01/30 03:41:34;;;;;;;99.38;45.55;;;-4.20;99.90;;;;;;5063100;27;20025;-73
2024/01/30 03:44:00;;;;;;;96.30;44.13;;;-4.30;99.90;;;;;;5043232;28;20042;-74
2024/01/30 03:46:25;;;;;;;98.85;47.95;;;-4.30;99.90;;;;;;5019267;28;20063;-81
2024/01/30 03:48:51;;;;;;;102.45;48.72;;;-4.30;99.90;;;;;;5031619;28;20068;-74
2024/01/30 03:51:16;;;;;;;95.88;45.38;;;-4.30;99.90;;;;;;5032617;28;20029;-82
2024/01/30 03:53:43;;;;;;;106.22;49.00;;;-4.30;99.90;;;;;;5061313;28;20018;-74
2024/01/30 03:56:09;;;;;;;106.35;49.00;;;-4.30;99.90;;;;;;5079823;28;20023;-74
2024/01/30 03:58:34;;;;;;;103.88;49.03;;;-4.40;99.90;;;;;;5082196;27;20467;-74
2024/01/30 04:01:00;;;;;;;105.47;49.95;;;-4.40;99.90;;;;;;5046389;28;20870;-81
2024/01/30 04:03:26;;;;;;;88.25;43.90;;;-4.40;99.90;;;;;;5047337;28;20013;-82
2024/01/30 04:05:52;;;;;;;93.97;43.33;;;-4.40;99.90;;;;;;5079512;28;20027;-73
2024/01/30 04:08:18;;;;;;;92.97;45.67;;;-4.40;99.90;;;;;;5081071;27;20024;-73
2024/01/30 04:10:44;;;;;;;109.40;44.78;;;-4.40;99.90;;;;;;5076245;28;20027;-83
2024/01/30 04:13:10;;;;;;;93.70;44.88;;;-4.40;99.90;;;;;;5113816;28;20124;-82
2024/01/30 04:15:35;;;;;;;94.28;44.72;;;-4.40;99.90;;;;;;5057827;28;20482;-74
2024/01/30 04:18:01;;;;;;;97.32;46.80;;;-4.40;99.90;;;;;;5032548;28;20063;-74
2024/01/30 04:20:27;;;;;;;96.68;46.33;;;-4.40;99.90;;;;;;5068992;28;20046;-82
2024/01/30 04:22:53;;;;;;;107.95;45.65;;;-4.50;99.90;;;;;;5064044;27;20053;-82
2024/01/30 04:25:19;;;;;;;101.25;48.92;;;-4.50;99.90;;;;;;5088094;27;20028;-82
2024/01/30 04:27:44;;;;;;;102.97;46.60;;;-4.50;99.90;;;;;;5032461;27;20112;-73
2024/01/30 04:30:10;;;;;;;106.95;52.13;;;-4.50;99.90;;;;;;5033606;28;20014;-75
2024/01/30 04:32:36;;;;;;;133.45;55.70;;;-4.50;99.90;;;;;;5034081;28;20049;-84
2024/01/30 04:35:03;;;;;;;113.88;49.45;;;-4.50;99.90;;;;;;5028484;28;20521;-74
2024/01/30 04:37:29;;;;;;;109.68;54.10;;;-4.50;99.90;;;;;;5034280;27;20034;-83
2024/01/30 04:39:54;;;;;;;121.68;50.58;;;-4.50;99.90;;;;;;5082064;27;20022;-75
2024/01/30 04:42:20;;;;;;;113.68;49.75;;;-4.50;99.90;;;;;;5133805;27;20019;-74
2024/01/30 04:44:46;;;;;;;110.53;48.90;;;-4.50;99.90;;;;;;5135825;27;20019;-74
2024/01/30 04:47:11;;;;;;;109.50;49.00;;;-4.60;99.90;;;;;;5064477;27;20135;-74
2024/01/30 04:49:42;;;;;;;105.38;46.88;;;-4.60;99.90;;;;;;5121232;27;20047;-74
2024/01/30 04:52:08;;;;;;;123.43;50.17;;;-4.60;99.90;;;;;;5132869;27;20016;-74
2024/01/30 04:54:35;;;;;;;106.47;47.20;;;-4.60;99.90;;;;;;5135565;27;20020;-83
2024/01/30 04:57:05;;;;;;;111.05;48.28;;;-4.60;99.90;;;;;;5074353;27;20023;-74
2024/01/30 04:59:31;;;;;;;108.57;45.42;;;-4.60;99.90;;;;;;5135802;27;20019;-82
2024/01/30 05:01:56;;;;;;;109.85;49.53;;;-4.60;99.90;;;;;;5118017;27;20021;-73
2024/01/30 05:04:22;;;;;;;105.82;47.50;;;-4.70;99.90;;;;;;5032832;28;20490;-73
2024/01/30 05:06:48;;;;;;;111.38;45.35;;;-4.70;99.90;;;;;;5026673;28;20033;-73
2024/01/30 05:09:13;;;;;;;106.47;49.60;;;-4.70;99.90;;;;;;5030873;28;20033;-74
2024/01/30 05:11:40;;;;;;;102.55;48.67;;;-4.60;99.90;;;;;;5031927;28;20086;-82
2024/01/30 05:14:06;;;;;;;114.47;49.40;;;-4.70;99.90;;;;;;5031371;27;20095;-82
2024/01/30 05:16:32;;;;;;;93.03;45.97;;;-4.70;99.90;;;;;;5033678;27;20443;-82
2024/01/30 05:18:58;;;;;;;111.53;50.95;;;-4.70;99.90;;;;;;5037064;27;20049;-74
2024/01/30 05:21:24;;;;;;;101.22;47.60;;;-4.70;99.90;;;;;;5121647;27;20031;-73
2024/01/30 05:23:49;;;;;;;89.15;44.00;;;-4.60;99.90;;;;;;5078185;27;20033;-82
2024/01/30 05:26:15;;;;;;;102.85;44.80;;;-4.70;99.90;;;;;;5042914;27;20037;-73
2024/01/30 05:28:41;;;;;;;93.80;44.42;;;-4.70;99.90;;;;;;5044508;27;20029;-73
2024/01/30 05:31:06;;;;;;;102.35;47.95;;;-4.70;99.90;;;;;;5056652;27;20033;-81
2024/01/30 05:33:32;;;;;;;92.53;45.90;;;-4.70;99.90;;;;;;5043589;27;20534;-73
2024/01/30 05:35:57;;;;;;;93.90;46.55;;;-4.70;99.90;;;;;;5042555;27;20030;-74
2024/01/30 05:38:23;;;;;;;94.85;43.58;;;-4.70;99.90;;;;;;5046864;27;20049;-74
2024/01/30 05:40:49;;;;;;;98.55;44.50;;;-4.80;99.90;;;;;;5046797;27;20108;-74
2024/01/30 05:43:15;;;;;;;92.55;44.47;;;-4.80;99.90;;;;;;5115084;27;20015;-73
2024/01/30 05:45:41;;;;;;;97.78;42.38;;;-4.80;99.90;;;;;;5100635;27;20032;-83
2024/01/30 05:48:06;;;;;;;95.85;42.22;;;-4.80;99.90;;;;;;5115985;27;20104;-73
2024/01/30 05:50:32;;;;;;;91.63;40.83;;;-4.80;99.90;;;;;;5100845;27;20047;-73
2024/01/30 05:52:58;;;;;;;96.50;40.95;;;-4.80;99.90;;;;;;5081151;27;20024;-74
2024/01/30 05:55:23;;;;;;;88.25;41.72;;;-4.80;99.90;;;;;;5089230;27;20031;-83
2024/01/30 05:57:49;;;;;;;84.22;40.08;;;-4.80;99.90;;;;;;5118526;27;20118;-73
2024/01/30 06:00:15;;;;;;;92.38;42.75;;;-4.80;99.90;;;;;;5118469;27;20028;-73
2024/01/30 06:02:41;;;;;;;87.05;41.50;;;-4.80;99.90;;;;;;5117412;27;20358;-83
2024/01/30 06:05:07;;;;;;;93.78;45.33;;;-4.80;99.90;;;;;;5118827;27;20033;-81
2024/01/30 06:07:32;;;;;;;96.20;48.30;;;-4.80;99.90;;;;;;5090873;27;20045;-80
2024/01/30 06:10:00;;;;;;;107.03;44.33;;;-4.80;99.90;;;;;;5078968;27;20061;-81
2024/01/30 06:12:28;;;;;;;102.13;45.45;;;-4.80;99.90;;;;;;5069211;27;20563;-74
2024/01/30 06:14:56;;;;;;;97.25;44.53;;;-4.80;99.90;;;;;;5073880;27;20069;-74
2024/01/30 06:17:22;;;;;;;342.38;119.65;;;-4.80;99.90;;;;;;5070503;27;20025;-83
2024/01/30 06:19:48;;;;;;;286.77;110.28;;;-4.80;99.90;;;;;;5050646;27;20489;-72
2024/01/30 06:22:14;;;;;;;203.70;81.43;;;-4.80;99.90;;;;;;5050982;27;20046;-81
2024/01/30 06:24:39;;;;;;;220.50;81.78;;;-4.80;99.90;;;;;;5077087;27;20088;-81
2024/01/30 06:27:05;;;;;;;323.85;110.63;;;-4.90;99.90;;;;;;5079569;27;20035;-81
2024/01/30 06:29:31;;;;;;;225.18;85.47;;;-4.80;99.90;;;;;;5038624;27;20021;-75
2024/01/30 06:31:57;;;;;;;191.88;70.57;;;-4.80;99.90;;;;;;5028765;27;20429;-83
2024/01/30 06:34:22;;;;;;;269.55;95.40;;;-4.80;99.90;;;;;;5052935;27;20743;-81
2024/01/30 06:36:48;;;;;;;254.48;90.03;;;-4.80;99.90;;;;;;5041701;27;20118;-80
2024/01/30 06:39:14;;;;;;;505.25;167.80;;;-4.80;99.90;;;;;;5046250;27;20082;-83
2024/01/30 06:41:39;;;;;;;328.30;114.25;;;-4.80;99.90;;;;;;5035816;27;20097;-76
2024/01/30 06:44:08;;;;;;;289.05;101.85;;;-4.80;99.90;;;;;;5075520;27;20079;-76
2024/01/30 06:46:34;;;;;;;228.13;83.20;;;-4.80;99.90;;;;;;5046528;27;20059;-80
2024/01/30 06:48:59;;;;;;;223.80;78.53;;;-4.70;99.90;;;;;;5073423;27;20061;-76
2024/01/30 06:51:25;;;;;;;278.45;104.05;;;-4.70;99.90;;;;;;5054863;27;20028;-75
2024/01/30 06:53:51;;;;;;;312.48;120.50;;;-4.70;99.90;;;;;;5071283;27;20036;-83
2024/01/30 06:56:20;;;;;;;361.02;133.45;;;-4.60;99.90;;;;;;5089004;27;20034;-75
2024/01/30 06:58:47;;;;;;;355.50;130.82;;;-4.60;99.90;;;;;;5040796;27;20024;-81
2024/01/30 07:01:14;;;;;;;364.52;137.70;;;-4.50;99.90;;;;;;5027964;28;20529;-75
2024/01/30 07:03:39;;;;;;;381.60;144.00;;;-4.50;99.90;;;;;;5052683;27;20055;-82
2024/01/30 07:06:05;;;;;;;250.88;93.18;;;-4.40;99.90;;;;;;5037831;27;20501;-74
2024/01/30 07:08:31;;;;;;;302.00;119.97;;;-4.30;99.90;;;;;;5072046;27;20030;-82
2024/01/30 07:10:59;;;;;;;299.27;108.68;;;-4.20;99.90;;;;;;5037517;27;20011;-83
2024/01/30 07:13:25;;;;;;;198.15;80.85;;;-4.10;99.90;;;;;;5068287;27;20055;-75
2024/01/30 07:15:50;;;;;;;186.20;73.30;;;-4.10;99.90;;;;;;5113550;27;20029;-75
2024/01/30 07:18:16;;;;;;;149.82;67.13;;;-4.00;99.90;;;;;;5017365;27;20062;-83
2024/01/30 07:20:49;;;;;;;92.38;42.35;;;-3.90;99.90;;;;;;5102099;27;20019;-75
2024/01/30 07:23:17;;;;;;;94.57;41.42;;;-3.70;99.90;;;;;;5082326;27;20047;-77
2024/01/30 07:25:44;;;;;;;98.18;46.60;;;-3.60;99.90;;;;;;5089256;27;20016;-76
2024/01/30 07:28:10;;;;;;;96.22;43.92;;;-3.40;99.90;;;;;;5081890;27;20023;-81
2024/01/30 07:30:36;;;;;;;89.05;39.63;;;-3.20;99.90;;;;;;5077966;27;20105;-75
2024/01/30 07:33:02;;;;;;;81.45;38.78;;;-3.10;99.90;;;;;;5041465;27;20027;-74
2024/01/30 07:35:28;;;;;;;79.90;38.22;;;-3.00;99.90;;;;;;5062201;27;20017;-82
2024/01/30 07:37:53;;;;;;;97.40;42.20;;;-2.90;99.90;;;;;;5085361;27;20025;-74
2024/01/30 07:40:19;;;;;;;85.03;37.95;;;-2.70;99.90;;;;;;5024949;28;20040;-75
2024/01/30 07:42:45;;;;;;;83.28;36.22;;;-2.60;99.90;;;;;;5017231;28;20026;-83
2024/01/30 07:45:10;;;;;;;105.68;47.25;;;-2.40;99.90;;;;;;5022553;28;20304;-84
2024/01/30 07:47:36;;;;;;;362.10;128.60;;;-2.30;99.90;;;;;;5059299;27;20048;-85
2024/01/30 07:50:01;;;;;;;686.13;281.75;;;-2.20;99.90;;;;;;5114629;27;20104;-82
2024/01/30 07:52:27;;;;;;;517.97;192.45;;;-2.10;99.90;;;;;;5065378;28;20021;-83
2024/01/30 07:54:53;;;;;;;345.75;129.43;;;-2.00;99.90;;;;;;5045596;28;20486;-84
2024/01/30 07:57:18;;;;;;;226.18;80.90;;;-1.90;99.90;;;;;;5024288;28;20125;-81
2024/01/30 07:59:44;;;;;;;189.98;73.57;;;-1.80;99.90;;;;;;5051803;27;20104;-82
2024/01/30 08:02:13;;;;;;;197.20;69.07;;;-1.60;99.90;;;;;;5026039;28;20071;-84
2024/01/30 08:04:39;;;;;;;116.40;48.15;;;-1.60;99.90;;;;;;5033307;28;20106;-83
2024/01/30 08:07:04;;;;;;;101.80;44.22;;;-1.50;99.90;;;;;;5032765;28;20104;-84
2024/01/30 08:09:30;;;;;;;113.50;49.15;;;-1.30;99.90;;;;;;5032700;28;20105;-86
2024/01/30 08:11:56;;;;;;;89.03;41.70;;;-1.20;99.90;;;;;;5025399;28;20014;-85
2024/01/30 08:14:22;;;;;;;105.85;46.90;;;-1.10;99.90;;;;;;5027011;28;20018;-84
2024/01/30 08:16:48;;;;;;;241.05;101.57;;;-1.00;99.90;;;;;;5032439;28;20030;-84
2024/01/30 08:19:14;;;;;;;146.75;61.30;;;-0.90;99.90;;;;;;5032409;28;20022;-83
2024/01/30 08:21:40;;;;;;;275.52;103.30;;;-0.80;99.90;;;;;;5034038;27;20119;-83
2024/01/30 08:24:06;;;;;;;209.85;70.15;;;-0.60;99.90;;;;;;5056810;27;20029;-83
2024/01/30 08:26:32;;;;;;;145.25;55.97;;;-0.50;99.90;;;;;;5055328;27;20047;-83
2024/01/30 08:28:58;;;;;;;106.88;45.08;;;-0.40;99.90;;;;;;5065620;27;20080;-83
2024/01/30 08:31:24;;;;;;;74.93;34.25;;;-0.30;99.90;;;;;;5038991;27;20070;-82
2024/01/30 08:33:50;;;;;;;94.00;36.22;;;-0.20;99.90;;;;;;5031816;28;20049;-83
2024/01/30 08:36:16;;;;;;;101.60;38.65;;;-0.10;99.90;;;;;;5042602;27;20060;-82
2024/01/30 08:38:42;;;;;;;74.38;31.13;;;0.00;99.90;;;;;;5024252;27;20078;-83
2024/01/30 08:41:08;;;;;;;61.70;27.80;;;0.10;99.90;;;;;;5033024;27;20092;-82
2024/01/30 08:43:34;;;;;;;86.10;35.67;;;0.20;99.90;;;;;;5048717;27;20052;-83
2024/01/30 08:46:00;;;;;;;74.57;29.83;;;0.20;99.90;;;;;;5026977;28;20514;-83
2024/01/30 08:48:26;;;;;;;100.93;35.47;;;0.30;99.90;;;;;;5042016;27;21442;-82
2024/01/30 08:50:52;;;;;;;65.47;27.35;;;0.40;99.90;;;;;;5044381;27;20088;-84
2024/01/30 08:53:18;;;;;;;49.00;23.70;;;0.40;99.90;;;;;;5093609;27;20023;-83
2024/01/30 08:55:44;;;;;;;55.30;25.98;;;0.50;99.90;;;;;;5033181;28;20026;-84
2024/01/30 08:58:10;;;;;;;195.18;79.97;;;0.60;99.90;;;;;;5030132;28;20025;-82
2024/01/30 09:00:35;;;;;;;407.65;136.55;;;0.70;99.90;;;;;;5031855;27;20398;-82
2024/01/30 09:03:01;;;;;;;185.40;60.92;;;0.70;99.90;;;;;;5038259;27;20061;-81
2024/01/30 09:05:27;;;;;;;72.03;27.90;;;0.80;99.90;;;;;;5054915;27;20025;-83
2024/01/30 09:07:52;;;;;;;48.85;22.75;;;0.90;99.90;;;;;;5030785;28;20041;-83
2024/01/30 09:10:18;;;;;;;55.90;25.67;;;1.00;99.90;;;;;;5031382;28;20030;-83
2024/01/30 09:12:44;;;;;;;57.42;25.83;;;1.10;99.90;;;;;;5056280;27;20048;-85
2024/01/30 09:15:10;;;;;;;92.25;37.92;;;1.20;99.90;;;;;;5030890;28;20335;-84
2024/01/30 09:17:36;;;;;;;278.27;86.70;;;1.20;99.90;;;;;;5028163;28;20040;-82
2024/01/30 09:20:01;;;;;;;135.85;42.85;;;1.30;99.90;;;;;;5035494;27;20093;-82
2024/01/30 09:22:27;;;;;;;118.10;36.45;;;1.30;99.90;;;;;;5116734;27;20064;-82
2024/01/30 09:24:53;;;;;;;59.10;23.02;;;1.40;99.90;;;;;;5036156;27;20025;-83
2024/01/30 09:27:18;;;;;;;57.70;25.55;;;1.40;99.90;;;;;;5042472;27;20142;-83
2024/01/30 09:29:44;;;;;;;53.95;22.75;;;1.50;99.90;;;;;;5031203;27;20078;-83
2024/01/30 09:32:10;;;;;;;45.72;21.92;;;1.60;99.90;;;;;;5027067;28;20060;-84
2024/01/30 09:34:35;;;;;;;167.38;62.30;;;1.60;99.90;;;;;;5055389;27;20022;-83
2024/01/30 09:37:02;;;;;;;75.03;31.25;;;1.70;99.90;;;;;;5080084;27;20441;-83
2024/01/30 09:39:27;;;;;;;102.82;32.80;;;1.80;99.90;;;;;;5116552;27;20022;-82
2024/01/30 09:42:15;;;;;;;64.35;25.08;;;1.80;99.90;;;;;;5054123;27;20139;-83
2024/01/30 09:44:43;;;;;;;41.40;20.60;;;1.90;99.90;;;;;;5029224;28;20033;-82
2024/01/30 09:47:10;;;;;;;49.72;23.15;;;2.00;99.90;;;;;;5065112;27;20043;-83
2024/01/30 09:49:36;;;;;;;184.52;75.30;;;2.00;99.90;;;;;;5068692;27;20060;-83
2024/01/30 09:52:03;;;;;;;170.25;59.15;;;2.00;99.90;;;;;;5069779;27;20042;-82
2024/01/30 09:54:32;;;;;;;146.95;41.05;;;2.10;99.90;;;;;;5089740;27;20015;-84
2024/01/30 09:56:58;;;;;;;64.05;28.08;;;2.20;99.90;;;;;;5089308;27;20089;-82
2024/01/30 09:59:24;;;;;;;40.92;19.75;;;2.20;99.90;;;;;;5079068;27;20026;-83
2024/01/30 10:01:51;;;;;;;64.25;24.63;;;2.30;99.90;;;;;;5028031;28;20159;-83
2024/01/30 10:04:17;;;;;;;107.18;35.00;;;2.30;99.90;;;;;;5029244;28;20049;-83
2024/01/30 10:06:43;;;;;;;181.20;78.90;;;2.40;99.90;;;;;;5029305;28;20070;-82
2024/01/30 10:09:09;;;;;;;118.65;41.13;;;2.40;99.90;;;;;;5028606;28;20022;-81
2024/01/30 10:11:36;;;;;;;74.13;27.08;;;2.50;99.90;;;;;;5058167;27;20018;-82
2024/01/30 10:14:02;;;;;;;62.42;25.52;;;2.60;99.90;;;;;;5062075;27;20081;-82
2024/01/30 10:16:27;;;;;;;48.30;21.55;;;2.60;99.90;;;;;;5027971;28;20490;-82
2024/01/30 10:18:53;;;;;;;34.75;18.30;;;2.80;99.90;;;;;;5057471;27;20426;-81
2024/01/30 10:21:19;;;;;;;46.85;21.23;;;2.80;99.90;;;;;;5023948;27;20548;-81
2024/01/30 10:23:44;;;;;;;47.10;24.63;;;2.90;99.90;;;;;;5024143;27;20030;-81
2024/01/30 10:26:10;;;;;;;82.90;31.17;;;2.90;99.90;;;;;;5031776;27;20012;-81
2024/01/30 10:28:36;;;;;;;40.03;19.13;;;3.00;99.90;;;;;;5022069;27;20079;-82
2024/01/30 10:31:05;;;;;;;50.38;22.13;;;3.10;99.90;;;;;;5021268;27;20018;-81
2024/01/30 10:33:31;;;;;;;44.95;21.10;;;3.10;98.70;;;;;;5026273;28;20041;-81
2024/01/30 10:36:06;;;;;;;56.70;24.10;;;3.20;98.70;;;;;;5028004;28;20018;-81
2024/01/30 10:38:32;;;;;;;40.40;18.90;;;3.30;96.80;;;;;;5024192;27;20021;-82
2024/01/30 10:41:01;;;;;;;43.63;25.83;;;3.30;95.00;;;;;;5035340;27;20014;-82
2024/01/30 10:43:39;;;;;;;70.75;32.10;;;3.30;92.20;;;;;;5027589;27;20067;-81
2024/01/30 10:46:19;;;;;;;29.27;15.52;;;3.30;90.70;;;;;;5038750;27;20033;-81
2024/01/30 10:48:50;;;;;;;46.72;18.83;;;3.40;91.20;;;;;;5032224;27;20033;-81
2024/01/30 10:51:18;;;;;;;68.93;25.80;;;3.50;89.90;;;;;;5031522;27;20014;-82
2024/01/30 10:53:46;;;;;;;32.20;16.13;;;3.60;91.00;;;;;;5047786;27;20026;-81
2024/01/30 10:56:13;;;;;;;25.75;15.48;;;3.60;90.00;;;;;;5032067;27;20034;-81
2024/01/30 10:58:39;;;;;;;38.65;18.02;;;3.60;86.40;;;;;;5023440;27;20022;-81
2024/01/30 11:01:05;;;;;;;29.00;16.33;;;3.70;85.90;;;;;;5033667;27;20030;-81
2024/01/30 11:03:34;;;;;;;70.03;31.88;;;3.70;84.40;;;;;;5039369;27;20509;-81
2024/01/30 11:06:00;;;;;;;29.17;14.57;;;3.80;83.30;;;;;;5029355;28;20017;-81
2024/01/30 11:08:28;;;;;;;32.53;15.85;;;3.90;81.50;;;;;;5024057;27;20448;-81
2024/01/30 11:10:58;;;;;;;43.50;18.40;;;3.90;80.40;;;;;;5024006;27;20026;-81
2024/01/30 11:13:31;;;;;;;42.00;17.50;;;3.90;79.70;;;;;;5024121;27;20049;-81
2024/01/30 11:16:04;;;;;;;24.45;12.57;;;4.10;80.80;;;;;;5030895;27;20105;-81
2024/01/30 11:18:32;;;;;;;27.50;14.15;;;4.10;79.10;;;;;;5059706;27;20055;-81
2024/01/30 11:21:19;;;;;;;39.78;17.33;;;4.20;78.90;;;;;;5055480;27;20026;-81
2024/01/30 11:23:45;;;;;;;81.25;41.15;;;4.30;77.60;;;;;;5023409;28;20026;-81
2024/01/30 11:26:11;;;;;;;34.00;15.80;;;4.30;77.20;;;;;;5069728;27;20158;-80
2024/01/30 11:28:38;;;;;;;30.13;14.57;;;4.30;76.70;;;;;;5101850;27;20447;-81
2024/01/30 11:31:22;;;;;;;44.72;18.50;;;4.40;76.20;;;;;;5072670;27;20523;-81
2024/01/30 11:33:52;;;;;;;26.73;13.00;;;4.50;75.20;;;;;;5062580;27;20027;-81
2024/01/30 11:36:22;;;;;;;25.10;14.25;;;4.60;73.50;;;;;;5085618;27;20018;-81
2024/01/30 11:38:48;;;;;;;28.10;13.70;;;4.70;73.70;;;;;;5106778;27;20023;-81
2024/01/30 11:41:15;;;;;;;27.95;12.63;;;4.70;72.80;;;;;;5088220;27;20078;-81
2024/01/30 11:43:41;;;;;;;27.05;15.45;;;4.70;72.20;;;;;;5107641;27;20023;-81
2024/01/30 11:46:07;;;;;;;82.85;41.90;;;4.80;72.50;;;;;;5048917;28;20029;-79
2024/01/30 11:48:33;;;;;;;54.13;21.38;;;4.90;73.30;;;;;;5114187;27;20017;-78
2024/01/30 11:50:59;;;;;;;33.83;16.70;;;5.00;73.10;;;;;;5096362;27;20019;-78
2024/01/30 11:53:24;;;;;;;32.22;15.40;;;5.00;72.30;;;;;;5057494;28;20034;-81
2024/01/30 11:55:51;;;;;;;29.05;15.38;;;5.10;72.30;;;;;;5095563;28;20099;-82
2024/01/30 11:58:17;;;;;;;26.80;14.50;;;5.20;70.60;;;;;;5070466;28;20024;-83
2024/01/30 12:00:43;;;;;;;28.13;13.88;;;5.20;70.60;;;;;;5044773;28;20019;-78
2024/01/30 12:03:11;;;;;;;24.63;13.57;;;5.20;70.30;;;;;;5053101;28;20087;-83
2024/01/30 12:05:42;;;;;;;19.98;13.45;;;5.30;70.20;;;;;;5029026;28;20506;-78
2024/01/30 12:08:14;;;;;;;24.95;12.68;;;5.30;70.60;;;;;;5036934;28;20033;-83
2024/01/30 12:10:39;;;;;;;23.42;13.10;;;5.40;69.90;;;;;;5023744;28;20060;-83
2024/01/30 12:13:05;;;;;;;22.08;13.00;;;5.40;70.50;;;;;;5058924;28;20099;-76
2024/01/30 12:15:31;;;;;;;28.70;14.10;;;5.40;70.80;;;;;;5028837;28;20265;-75
2024/01/30 12:18:06;;;;;;;28.95;14.57;;;5.40;68.80;;;;;;5050281;28;20122;-76
2024/01/30 12:20:32;;;;;;;24.42;14.00;;;5.50;69.50;;;;;;5026032;28;20561;-80